LHPP/PEV METAR and TAF weather

Enter ICAO airport designator
Station Type Date Time Source
LHPP METAR 2024/06/14 03:15 UTC NOAA

LHPP 140315Z AUTO 30007KT CAVOK 10/10 Q1016


Station Type Date Time Source
LHPP Decoded METAR 2024/06/14 03:15 UTC NOAA

Pecs / Pogany, Hungary (LHPP) 46-06N 018-14E 203M
Jun 13, 2024 - 11:15 PM EDT / 2024.06.14 0315 UTC
Wind: from the WNW (300 degrees) at 8 MPH (7 KT):0
Visibility: greater than 7 mile(s):0
Temperature: 50 F (10 C)
Dew Point: 50 F (10 C)
Relative Humidity: 100%
Pressure (altimeter): 30.00 in. Hg (1016 hPa)
ob: LHPP 140315Z AUTO 30007KT CAVOK 10/10 Q1016
cycle: 3

Station Type Date Time Source
LHPP TAF 2017/08/21 15:50 UTC NOAA